createdAt,value
2023-05-09T00:01:34.029Z,42.10
2023-05-09T00:05:26.481Z,42.07
2023-05-09T00:09:35.884Z,42.06
2023-05-09T00:13:00.907Z,42.05
2023-05-09T00:16:52.918Z,42.02
2023-05-09T00:20:38.202Z,42.05
2023-05-09T00:24:10.420Z,42.07
2023-05-09T00:28:11.263Z,42.01
2023-05-09T00:32:20.854Z,42.03
2023-05-09T00:36:30.487Z,42.06
2023-05-09T00:40:40.007Z,42.04
2023-05-09T00:44:32.868Z,41.93
2023-05-09T00:48:17.286Z,41.93
2023-05-09T00:51:39.658Z,41.92
2023-05-09T00:55:28.468Z,41.96
2023-05-09T00:59:24.498Z,41.96
2023-05-09T01:03:34.078Z,41.91
2023-05-09T01:07:40.240Z,41.92
2023-05-09T01:12:11.856Z,42.00
2023-05-09T01:16:36.572Z,41.90
2023-05-09T01:20:28.237Z,41.86
2023-05-09T01:24:36.517Z,41.78
2023-05-09T01:28:38.710Z,41.73
2023-05-09T01:32:31.314Z,41.92
2023-05-09T01:36:31.858Z,41.93
2023-05-09T01:40:41.379Z,41.88
2023-05-09T01:44:43.411Z,41.90
2023-05-09T01:48:52.873Z,41.97
2023-05-09T01:53:05.352Z,41.93
2023-05-09T01:57:14.967Z,42.01
2023-05-09T02:01:17.449Z,41.88
2023-05-09T02:05:27.065Z,42.01
2023-05-09T02:09:29.627Z,42.05
2023-05-09T02:13:39.558Z,41.93
2023-05-09T02:17:41.672Z,41.95
2023-05-09T02:21:51.702Z,42.09
2023-05-09T02:26:01.309Z,41.93
2023-05-09T02:29:41.996Z,42.05
2023-05-09T02:33:51.479Z,42.06
2023-05-09T02:37:52.285Z,42.18
2023-05-09T02:41:42.045Z,42.13
2023-05-09T02:45:44.800Z,42.33
2023-05-09T02:49:32.377Z,42.28
2023-05-09T02:53:42.549Z,42.30
2023-05-09T02:57:44.055Z,42.26
2023-05-09T03:01:43.876Z,42.32
2023-05-09T03:05:53.563Z,42.36
2023-05-09T03:09:42.280Z,42.30
2023-05-09T03:13:20.909Z,42.34
2023-05-09T03:17:28.849Z,42.37
2023-05-09T03:21:20.105Z,42.53
2023-05-09T03:25:18.059Z,42.57
2023-05-09T03:29:28.084Z,42.57
2023-05-09T03:33:26.535Z,42.66
2023-05-09T03:37:36.096Z,42.70
2023-05-09T03:41:37.591Z,42.90
2023-05-09T03:45:30.928Z,43.12
2023-05-09T03:49:32.900Z,43.31
2023-05-09T03:53:35.476Z,43.50
2023-05-09T03:57:37.908Z,43.48
2023-05-09T04:01:47.175Z,43.53
2023-05-09T04:05:56.687Z,43.56
2023-05-09T04:10:04.764Z,43.62
2023-05-09T04:14:07.291Z,43.79
2023-05-09T04:18:08.031Z,43.88
2023-05-09T04:22:16.347Z,43.92
2023-05-09T04:26:20.292Z,43.74
2023-05-09T04:29:49.915Z,43.84
2023-05-09T04:33:53.674Z,43.96
2023-05-09T04:37:36.838Z,43.93
2023-05-09T04:41:09.427Z,43.85
2023-05-09T04:44:36.925Z,43.98
2023-05-09T04:48:46.535Z,43.92
2023-05-09T04:52:32.469Z,43.90
2023-05-09T04:56:17.915Z,43.99
2023-05-09T05:00:01.929Z,44.11
2023-05-09T05:03:42.647Z,43.99
2023-05-09T05:07:50.960Z,44.12
2023-05-09T05:11:37.521Z,43.98
2023-05-09T05:15:14.642Z,44.00
2023-05-09T05:18:29.288Z,44.07
2023-05-09T05:21:58.630Z,44.04
2023-05-09T05:25:25.129Z,44.01
2023-05-09T05:28:32.595Z,44.18
2023-05-09T05:32:11.086Z,44.18
2023-05-09T05:35:19.422Z,44.13
2023-05-09T05:38:39.342Z,44.29
2023-05-09T05:42:21.229Z,44.29
2023-05-09T05:45:22.617Z,44.35
2023-05-09T05:48:02.760Z,44.37
2023-05-09T05:51:24.814Z,44.21
2023-05-09T05:55:34.225Z,44.20
2023-05-09T05:59:26.576Z,44.25
2023-05-09T06:03:35.673Z,44.21
2023-05-09T06:07:38.847Z,44.13
2023-05-09T06:11:26.635Z,44.03
2023-05-09T06:15:05.959Z,43.83
2023-05-09T06:19:05.124Z,43.82
2023-05-09T06:23:14.710Z,43.80
2023-05-09T06:27:17.512Z,43.74
2023-05-09T06:31:19.581Z,43.73
2023-05-09T06:34:54.416Z,43.59
2023-05-09T06:38:52.799Z,43.65
2023-05-09T06:42:27.674Z,43.69
2023-05-09T06:45:49.960Z,43.60
2023-05-09T06:49:18.542Z,43.58
2023-05-09T06:53:03.429Z,43.77
2023-05-09T06:56:43.515Z,43.74
2023-05-09T06:59:27.471Z,43.73
2023-05-09T07:02:42.238Z,43.67
2023-05-09T07:06:23.509Z,43.71
2023-05-09T07:10:11.181Z,43.62
2023-05-09T07:14:01.620Z,43.57
2023-05-09T07:17:52.668Z,43.65
2023-05-09T07:21:42.226Z,43.62
2023-05-09T07:25:51.811Z,43.70
2023-05-09T07:30:01.306Z,43.64
2023-05-09T07:33:53.248Z,43.81
2023-05-09T07:37:52.805Z,43.78
2023-05-09T07:41:51.045Z,43.66
2023-05-09T07:46:00.628Z,43.66
2023-05-09T07:49:46.583Z,43.64
2023-05-09T07:53:08.657Z,43.59
2023-05-09T07:57:09.498Z,43.65
2023-05-09T08:00:46.545Z,43.74
2023-05-09T08:04:44.072Z,43.74
2023-05-09T08:08:34.470Z,43.86
2023-05-09T08:12:45.533Z,43.95
2023-05-09T08:16:55.134Z,44.04
2023-05-09T08:20:31.874Z,44.11
2023-05-09T08:23:53.294Z,44.25
2023-05-09T08:27:00.829Z,44.23
2023-05-09T08:30:33.985Z,44.26
2023-05-09T08:34:01.664Z,44.35
2023-05-09T08:37:54.439Z,44.37
2023-05-09T08:41:34.158Z,44.44
2023-05-09T08:44:43.807Z,44.37
2023-05-09T08:48:07.664Z,44.50
2023-05-09T08:51:38.351Z,44.45
2023-05-09T08:54:27.112Z,44.49
2023-05-09T08:57:16.424Z,44.43
2023-05-09T09:00:20.252Z,44.50
2023-05-09T09:04:00.454Z,44.66
2023-05-09T09:07:59.954Z,44.62
2023-05-09T09:11:30.911Z,44.64
2023-05-09T09:15:05.366Z,44.69
2023-05-09T09:19:03.988Z,44.51
2023-05-09T09:22:50.303Z,44.55
2023-05-09T09:26:22.642Z,44.45
2023-05-09T09:29:41.178Z,44.53
2023-05-09T09:32:40.348Z,44.50
2023-05-09T09:35:12.290Z,44.59
2023-05-09T09:39:02.289Z,44.39
2023-05-09T09:42:40.106Z,44.40
2023-05-09T09:46:19.966Z,44.47
2023-05-09T09:49:50.768Z,44.55
2023-05-09T09:53:43.673Z,44.27
2023-05-09T09:57:37.347Z,44.19
2023-05-09T10:00:56.034Z,44.31
2023-05-09T10:04:06.245Z,44.35
2023-05-09T10:07:33.207Z,44.46
2023-05-09T10:11:16.054Z,44.49
2023-05-09T10:14:07.140Z,44.33
2023-05-09T10:18:01.398Z,44.22
2023-05-09T10:21:02.851Z,44.21
2023-05-09T10:24:08.106Z,44.36
2023-05-09T10:27:46.627Z,44.38
2023-05-09T10:31:09.079Z,44.36
2023-05-09T10:35:18.550Z,44.23
2023-05-09T10:38:42.364Z,44.18
2023-05-09T10:42:42.361Z,44.19
2023-05-09T10:46:11.059Z,44.26
2023-05-09T10:49:53.235Z,44.16
2023-05-09T10:53:46.284Z,44.16
2023-05-09T10:57:54.705Z,44.11
2023-05-09T11:01:37.935Z,43.86
2023-05-09T11:05:29.728Z,43.75
2023-05-09T11:09:28.157Z,43.63
2023-05-09T11:13:19.446Z,43.63
2023-05-09T11:16:53.806Z,43.69
2023-05-09T11:20:10.879Z,43.67
2023-05-09T11:23:24.254Z,43.50
2023-05-09T11:26:46.578Z,43.38
2023-05-09T11:30:47.077Z,43.29
2023-05-09T11:33:56.384Z,43.20
2023-05-09T11:37:30.218Z,43.12
2023-05-09T11:40:43.875Z,42.95
2023-05-09T11:44:54.057Z,42.98
2023-05-09T11:48:43.629Z,43.08
2023-05-09T11:52:10.070Z,42.96
2023-05-09T11:56:03.134Z,42.77
2023-05-09T11:59:45.832Z,42.67
2023-05-09T12:03:45.723Z,42.63
2023-05-09T12:07:13.290Z,42.70
2023-05-09T12:10:06.503Z,42.53
2023-05-09T12:13:31.405Z,42.41
2023-05-09T12:17:08.963Z,42.34
2023-05-09T12:20:21.077Z,42.43
2023-05-09T12:24:01.763Z,42.46
2023-05-09T12:28:02.274Z,42.38
2023-05-09T12:31:35.419Z,42.44
2023-05-09T12:35:11.936Z,42.22
2023-05-09T12:38:34.544Z,42.26
2023-05-09T12:42:25.667Z,42.07
2023-05-09T12:46:36.880Z,42.07
2023-05-09T12:49:51.321Z,42.07
2023-05-09T12:53:22.041Z,42.05
2023-05-09T12:57:30.143Z,41.85
2023-05-09T13:00:45.479Z,42.00
2023-05-09T13:04:23.482Z,42.10
2023-05-09T13:07:48.525Z,42.13
2023-05-09T13:11:40.888Z,42.02
2023-05-09T13:15:50.626Z,41.72
2023-05-09T13:19:57.702Z,41.61
2023-05-09T13:23:28.628Z,41.59
2023-05-09T13:26:58.561Z,41.82
2023-05-09T13:30:14.835Z,41.93
2023-05-09T13:33:42.281Z,41.98
2023-05-09T13:37:20.987Z,41.80
2023-05-09T13:41:04.518Z,41.80
2023-05-09T13:44:09.423Z,41.59
2023-05-09T13:47:53.086Z,41.65
2023-05-09T13:51:56.747Z,41.45
2023-05-09T13:55:34.568Z,41.51
2023-05-09T13:58:57.387Z,41.50
2023-05-09T14:02:32.714Z,41.30
2023-05-09T14:06:04.218Z,41.30
2023-05-09T14:09:15.906Z,41.12
2023-05-09T14:13:11.231Z,40.97
2023-05-09T14:16:23.451Z,41.03
2023-05-09T14:19:03.384Z,41.03
2023-05-09T14:22:03.494Z,40.94
2023-05-09T14:25:08.196Z,40.80
2023-05-09T14:27:48.865Z,40.79
2023-05-09T14:30:52.292Z,40.96
2023-05-09T14:33:28.154Z,40.92
2023-05-09T14:36:02.986Z,40.76
2023-05-09T14:38:46.896Z,40.44
2023-05-09T14:41:23.458Z,40.65
2023-05-09T14:43:55.151Z,40.55
2023-05-09T14:46:55.762Z,40.39
2023-05-09T14:50:36.453Z,40.17
2023-05-09T14:54:04.693Z,39.99
2023-05-09T14:57:56.707Z,39.93
2023-05-09T15:01:10.584Z,39.78
2023-05-09T15:04:22.248Z,39.27
2023-05-09T15:08:25.081Z,39.07
2023-05-09T15:12:00.187Z,38.97
2023-05-09T15:15:13.250Z,38.81
2023-05-09T15:18:07.985Z,38.74
2023-05-09T15:21:28.829Z,38.44
2023-05-09T15:24:31.452Z,38.29
2023-05-09T15:27:57.160Z,38.32
2023-05-09T15:31:24.132Z,38.25
2023-05-09T15:34:12.684Z,38.00
2023-05-09T15:37:13.238Z,37.92
2023-05-09T15:40:10.514Z,37.88
2023-05-09T15:43:11.947Z,37.97
2023-05-09T15:46:45.781Z,37.71
2023-05-09T15:50:30.603Z,37.77
2023-05-09T15:53:50.352Z,37.74
2023-05-09T15:56:58.178Z,37.65
2023-05-09T16:00:30.697Z,37.77
2023-05-09T16:03:29.399Z,37.97
2023-05-09T16:06:27.800Z,37.91
2023-05-09T16:09:03.848Z,37.91
2023-05-09T16:11:51.868Z,38.19
2023-05-09T16:15:27.285Z,38.51
2023-05-09T16:19:14.323Z,38.45
2023-05-09T16:22:15.202Z,38.47
2023-05-09T16:25:30.939Z,38.17
2023-05-09T16:28:34.670Z,38.16
2023-05-09T16:31:30.603Z,38.58
2023-05-09T16:34:33.932Z,38.64
2023-05-09T16:37:19.089Z,38.60
2023-05-09T16:40:08.772Z,38.68
2023-05-09T16:43:27.662Z,38.58
2023-05-09T16:47:21.676Z,38.52
2023-05-09T16:50:21.769Z,38.35
2023-05-09T16:53:45.146Z,38.33
2023-05-09T16:57:29.623Z,38.53
2023-05-09T17:00:43.472Z,38.66
2023-05-09T17:04:43.359Z,38.73
2023-05-09T17:08:42.515Z,38.56
2023-05-09T17:12:19.625Z,38.68
2023-05-09T17:16:05.605Z,38.65
2023-05-09T17:19:14.067Z,38.64
2023-05-09T17:23:06.736Z,38.63
2023-05-09T17:27:01.384Z,38.83
2023-05-09T17:30:40.473Z,38.85
2023-05-09T17:34:09.082Z,38.82
2023-05-09T17:36:58.722Z,38.81
2023-05-09T17:40:41.565Z,38.79
2023-05-09T17:44:15.992Z,38.83
2023-05-09T17:47:14.299Z,38.84
2023-05-09T17:49:51.115Z,38.84
2023-05-09T17:52:19.847Z,38.93
2023-05-09T17:55:01.495Z,38.88
2023-05-09T17:57:44.044Z,39.22
2023-05-09T18:00:18.658Z,39.21
2023-05-09T18:03:05.472Z,39.47
2023-05-09T18:06:13.522Z,39.66
2023-05-09T18:09:12.932Z,39.72
2023-05-09T18:11:59.162Z,39.76
2023-05-09T18:15:03.379Z,39.89
2023-05-09T18:17:59.457Z,39.87
2023-05-09T18:20:59.624Z,40.06
2023-05-09T18:23:56.345Z,40.41
2023-05-09T18:26:35.431Z,40.66
2023-05-09T18:29:24.353Z,40.91
2023-05-09T18:32:02.102Z,41.08
2023-05-09T18:35:07.424Z,41.20
2023-05-09T18:37:42.185Z,41.35
2023-05-09T18:40:17.057Z,41.46
2023-05-09T18:43:18.268Z,41.44
2023-05-09T18:46:47.696Z,41.78
2023-05-09T18:49:26.392Z,42.02
2023-05-09T18:52:53.922Z,42.19
2023-05-09T18:56:39.064Z,42.44
2023-05-09T18:59:13.770Z,42.72
2023-05-09T19:01:51.839Z,42.99
2023-05-09T19:05:03.148Z,43.18
2023-05-09T19:08:16.306Z,43.41
2023-05-09T19:11:01.655Z,43.69
2023-05-09T19:14:01.030Z,43.79
2023-05-09T19:17:45.319Z,44.07
2023-05-09T19:21:38.421Z,44.27
2023-05-09T19:24:52.657Z,44.50
2023-05-09T19:28:19.020Z,44.70
2023-05-09T19:31:39.676Z,44.87
2023-05-09T19:35:30.731Z,45.05
2023-05-09T19:39:12.435Z,45.24
2023-05-09T19:43:22.241Z,45.29
2023-05-09T19:46:06.074Z,45.49
2023-05-09T19:49:30.388Z,45.61
2023-05-09T19:52:40.169Z,45.85
2023-05-09T19:55:13.685Z,45.96
2023-05-09T19:58:18.086Z,46.09
2023-05-09T20:01:42.904Z,46.25
2023-05-09T20:04:42.601Z,46.40
2023-05-09T20:08:29.772Z,46.62
2023-05-09T20:12:21.258Z,46.84
2023-05-09T20:16:09.350Z,46.94
2023-05-09T20:19:06.491Z,47.12
2023-05-09T20:22:04.426Z,47.19
2023-05-09T20:25:13.123Z,47.27
2023-05-09T20:28:22.262Z,47.44
2023-05-09T20:31:49.267Z,47.62
2023-05-09T20:35:11.084Z,47.78
2023-05-09T20:39:13.297Z,47.91
2023-05-09T20:42:57.566Z,48.22
2023-05-09T20:46:34.853Z,48.59
2023-05-09T20:50:26.491Z,48.84
2023-05-09T20:54:17.709Z,49.04
2023-05-09T20:58:27.522Z,49.40
2023-05-09T21:02:11.771Z,49.62
2023-05-09T21:06:21.191Z,49.76
2023-05-09T21:10:06.542Z,49.69
2023-05-09T21:14:16.210Z,49.67
2023-05-09T21:18:16.780Z,49.76
2023-05-09T21:21:02.924Z,49.76
2023-05-09T21:24:31.154Z,49.77
2023-05-09T21:28:30.839Z,49.93
2023-05-09T21:32:40.501Z,49.90
2023-05-09T21:36:25.186Z,49.85
2023-05-09T21:40:10.002Z,49.77
2023-05-09T21:43:54.817Z,49.72
2023-05-09T21:47:38.853Z,49.86
2023-05-09T21:51:30.981Z,49.70
2023-05-09T21:55:40.526Z,49.47
2023-05-09T21:59:41.268Z,49.43
2023-05-09T22:03:34.095Z,49.38
2023-05-09T22:07:23.705Z,49.31
2023-05-09T22:11:33.195Z,49.13
2023-05-09T22:15:42.624Z,48.77
2023-05-09T22:19:52.194Z,48.52
2023-05-09T22:23:26.311Z,48.15
2023-05-09T22:27:10.795Z,48.00
2023-05-09T22:31:20.368Z,47.79
2023-05-09T22:35:30.116Z,47.47
2023-05-09T22:39:14.706Z,47.21
2023-05-09T22:43:24.280Z,46.93
2023-05-09T22:46:59.789Z,46.81
2023-05-09T22:50:31.626Z,46.58
2023-05-09T22:54:15.017Z,46.43
2023-05-09T22:58:23.331Z,46.30
2023-05-09T23:02:18.194Z,46.11
2023-05-09T23:06:07.553Z,45.96
2023-05-09T23:09:51.177Z,45.74
2023-05-09T23:13:59.763Z,45.54
2023-05-09T23:17:59.068Z,45.35
2023-05-09T23:22:09.012Z,45.21
2023-05-09T23:25:51.594Z,45.01
2023-05-09T23:29:25.208Z,44.83
2023-05-09T23:33:34.849Z,44.67
2023-05-09T23:37:44.140Z,44.51
2023-05-09T23:41:53.719Z,44.39
2023-05-09T23:45:56.323Z,44.22
2023-05-09T23:49:47.611Z,44.13
2023-05-09T23:53:57.206Z,44.08
2023-05-09T23:57:59.506Z,43.97
